Time;durP1;ratioP1;P1;durP2;ratioP2;P2;SDS_P1;SDS_P2;PMS_P1;PMS_P2;Temp;Humidity;BMP_temperature;BMP_pressure;BME280_temperature;BME280_humidity;BME280_pressure;Samples;Min_cycle;Max_cycle;Signal;HPM_P1;HPM_P2
2023/03/03 00:00:44;;;;;;;3.85;1.52;;;;;;;0.37;83.19;147420.00;5149219;27;20022;-65
2023/03/03 00:03:14;;;;;;;4.07;1.98;;;;;;;0.47;83.17;147445.44;5145538;27;20041;-65
2023/03/03 00:05:41;;;;;;;4.80;1.50;;;;;;;0.54;83.57;147461.94;5155122;27;20042;-65
2023/03/03 00:08:07;;;;;;;4.97;1.90;;;;;;;0.44;83.60;147436.50;5150255;27;20080;-65
2023/03/03 00:10:33;;;;;;;3.45;1.60;;;;;;;0.49;84.07;147450.50;5155374;27;20291;-65
2023/03/03 00:12:59;;;;;;;4.28;2.00;;;;;;;0.56;83.99;147465.81;5150611;27;20050;-64
2023/03/03 00:15:25;;;;;;;7.20;2.25;;;;;;;0.54;83.71;147460.69;5129404;27;20255;-63
2023/03/03 00:17:52;;;;;;;5.72;2.10;;;;;;;0.43;84.37;147433.94;5154356;27;20135;-62
2023/03/03 00:20:27;;;;;;;7.75;2.50;;;;;;;0.57;83.81;147468.31;5131181;28;20231;-66
2023/03/03 00:22:53;;;;;;;6.55;2.00;;;;;;;0.55;83.69;147463.25;5126273;27;20053;-64
2023/03/03 00:25:24;;;;;;;5.88;1.80;;;;;;;0.59;84.28;147473.44;5155020;27;20204;-63
2023/03/03 00:27:50;;;;;;;3.10;1.73;;;;;;;0.59;84.37;147473.44;5138124;27;20049;-64
2023/03/03 00:30:26;;;;;;;3.70;1.60;;;;;;;0.43;83.98;147435.25;5132132;27;20026;-63
2023/03/03 00:32:54;;;;;;;4.63;2.00;;;;;;;0.65;84.58;147488.69;5128816;27;20043;-64
2023/03/03 00:35:34;;;;;;;7.40;2.05;;;;;;;0.64;84.80;147486.13;5125230;28;20334;-65
2023/03/03 00:38:15;;;;;;;3.33;1.50;;;;;;;0.63;84.37;147484.88;5134232;27;20027;-67
2023/03/03 00:40:41;;;;;;;4.43;1.73;;;;;;;0.71;84.79;147503.91;5133234;27;20027;-65
2023/03/03 00:43:27;;;;;;;3.65;1.60;;;;;;;0.64;84.93;147486.13;5139638;27;20440;-63
2023/03/03 00:45:55;;;;;;;3.85;1.90;;;;;;;0.54;84.73;147460.69;5144951;27;20231;-65
2023/03/03 00:48:28;;;;;;;4.32;2.03;;;;;;;0.58;85.34;147470.88;5126861;27;20039;-64
2023/03/03 00:50:59;;;;;;;5.68;1.60;;;;;;;0.47;85.17;147445.44;5124567;28;20054;-64
2023/03/03 00:53:27;;;;;;;5.57;1.90;;;;;;;0.55;85.46;147463.25;5159473;27;20402;-64
2023/03/03 00:55:52;;;;;;;4.13;1.85;;;;;;;0.66;85.15;147491.22;5150918;27;20050;-64
2023/03/03 01:24:03;;;;;;;3.55;1.63;;;;;;;0.72;85.27;147506.47;5134959;27;20106;-65
2023/03/03 01:26:30;;;;;;;7.88;2.10;;;;;;;0.66;85.30;147492.50;5144323;27;20035;-65
2023/03/03 01:28:55;;;;;;;8.35;2.85;;;;;;;0.67;85.55;147495.03;5111913;28;20319;-65
2023/03/03 01:31:21;;;;;;;6.13;1.90;;;;;;;0.75;86.57;147512.84;5132875;27;20027;-65
2023/03/03 01:33:47;;;;;;;4.15;2.10;;;;;;;0.56;88.48;147465.81;5144483;27;20019;-64
2023/03/03 01:36:12;;;;;;;7.45;2.30;;;;;;;0.66;88.93;147491.22;5144830;27;20091;-64
2023/03/03 01:38:38;;;;;;;3.35;2.17;;;;;;;0.56;90.27;147467.06;5137469;27;20510;-64
2023/03/03 01:41:04;;;;;;;8.70;2.20;;;;;;;0.60;90.37;147477.25;5143914;27;20041;-65
2023/03/03 01:43:32;;;;;;;5.63;2.55;;;;;;;0.54;90.16;147460.69;5144580;27;20019;-65
2023/03/03 01:45:57;;;;;;;5.22;2.20;;;;;;;0.58;90.53;147472.13;5140488;27;20035;-64
2023/03/03 01:48:39;;;;;;;5.68;2.38;;;;;;;0.60;90.05;147477.25;5132682;27;20226;-65
2023/03/03 01:51:22;;;;;;;4.40;2.40;;;;;;;0.47;90.21;147444.13;5137646;27;20123;-63
2023/03/03 01:53:56;;;;;;;9.90;2.38;;;;;;;0.49;89.76;147450.50;5127700;27;20163;-64
2023/03/03 01:56:22;;;;;;;6.75;2.13;;;;;;;0.48;89.93;147447.94;5144330;27;20027;-63
2023/03/03 01:58:58;;;;;;;7.43;2.10;;;;;;;0.59;89.45;147473.44;5133386;27;20112;-63
2023/03/03 02:01:26;;;;;;;4.30;1.90;;;;;;;0.44;89.39;147437.81;5140015;27;20048;-64
2023/03/03 02:03:54;;;;;;;5.03;1.92;;;;;;;0.56;89.33;147465.81;5141457;27;20020;-64
2023/03/03 02:06:26;;;;;;;3.85;2.05;;;;;;;0.55;89.11;147464.50;5131248;27;20092;-65
2023/03/03 02:09:15;;;;;;;4.35;1.92;;;;;;;0.72;88.87;147506.47;5135725;27;20375;-65
2023/03/03 02:11:43;;;;;;;4.53;1.80;;;;;;;0.53;89.20;147459.44;5143328;27;20035;-64
2023/03/03 02:14:11;;;;;;;4.53;2.13;;;;;;;0.65;88.80;147489.94;5134998;27;20038;-64
2023/03/03 02:16:38;;;;;;;7.30;2.05;;;;;;;0.68;88.63;147496.28;5143404;27;20132;-64
2023/03/03 02:19:07;;;;;;;6.47;2.50;;;;;;;0.51;88.31;147455.63;5139067;27;20039;-64
2023/03/03 02:21:33;;;;;;;6.05;2.33;;;;;;;0.67;88.13;147495.03;5139448;27;20019;-64
2023/03/03 02:23:58;;;;;;;4.97;2.25;;;;;;;0.74;88.32;147510.28;5124632;27;20266;-65
2023/03/03 02:26:26;;;;;;;6.63;2.25;;;;;;;0.55;87.96;147463.25;5143729;27;20076;-64
2023/03/03 02:28:51;;;;;;;4.07;1.95;;;;;;;0.74;87.95;147511.59;5126476;27;20077;-64
2023/03/03 02:31:22;;;;;;;6.03;2.40;;;;;;;0.83;87.37;147534.47;5142725;27;20035;-64
2023/03/03 02:33:50;;;;;;;6.32;2.40;;;;;;;0.68;87.19;147496.28;5129081;27;20019;-65
2023/03/03 02:36:22;;;;;;;6.75;2.60;;;;;;;0.75;87.21;147514.09;5143338;27;20038;-65
2023/03/03 02:39:13;;;;;;;5.97;2.38;;;;;;;0.74;87.30;147511.59;5143165;27;20347;-63
2023/03/03 02:42:03;;;;;;;5.18;2.28;;;;;;;0.71;87.19;147503.91;5126696;27;20328;-63
2023/03/03 02:44:30;;;;;;;5.35;2.83;;;;;;;0.72;86.73;147506.47;5124389;27;20031;-62
2023/03/03 02:46:56;;;;;;;4.82;2.33;;;;;;;0.81;86.13;147529.41;5136509;27;20038;-64
2023/03/03 02:49:29;;;;;;;5.43;2.13;;;;;;;0.78;86.54;147521.72;5150419;27;20026;-64
2023/03/03 02:51:55;;;;;;;8.02;2.65;;;;;;;0.89;86.44;147548.47;5147418;27;20030;-64
2023/03/03 02:54:23;;;;;;;7.95;2.50;;;;;;;0.78;85.88;147521.72;5143140;27;20023;-64
2023/03/03 02:56:49;;;;;;;7.45;2.33;;;;;;;0.71;86.33;147502.66;5154303;27;20034;-64
2023/03/03 02:59:15;;;;;;;6.20;2.42;;;;;;;0.90;86.08;147549.72;5140425;27;20027;-65
2023/03/03 03:01:41;;;;;;;8.05;2.10;;;;;;;0.76;86.16;147515.41;5142943;27;20023;-65
2023/03/03 03:04:13;;;;;;;5.68;2.47;;;;;;;0.74;86.47;147510.28;5145357;27;20049;-65
2023/03/03 03:06:39;;;;;;;3.70;2.05;;;;;;;0.86;86.23;147540.84;5143536;27;20019;-64
2023/03/03 03:09:07;;;;;;;9.90;2.53;;;;;;;0.79;86.22;147524.28;5153188;27;20094;-64
2023/03/03 03:11:36;;;;;;;7.43;2.67;;;;;;;0.75;86.78;147512.84;5141776;27;20019;-63
2023/03/03 03:14:04;;;;;;;7.25;2.40;;;;;;;0.79;86.68;147523.03;5136499;27;20027;-63
2023/03/03 03:16:30;;;;;;;6.88;2.58;;;;;;;0.76;86.36;147516.66;5128141;27;20050;-63
2023/03/03 03:18:57;;;;;;;7.10;3.20;;;;;;;0.77;86.71;147519.22;5124760;27;20027;-63
2023/03/03 03:21:22;;;;;;;8.30;2.38;;;;;;;0.79;87.03;147524.28;5141594;27;20045;-64
2023/03/03 03:23:48;;;;;;;6.40;2.17;;;;;;;0.81;86.62;147529.41;5142338;27;20047;-67
2023/03/03 03:26:14;;;;;;;7.10;2.40;;;;;;;0.79;86.94;147524.28;5140513;27;20031;-65
2023/03/03 03:28:39;;;;;;;7.07;2.20;;;;;;;0.84;86.90;147537.03;5129692;27;20031;-64
2023/03/03 03:31:07;;;;;;;3.75;2.45;;;;;;;0.93;86.62;147557.41;5133804;27;20049;-65
2023/03/03 03:33:33;;;;;;;5.70;2.60;;;;;;;0.85;86.74;147538.28;5132588;27;20030;-65
2023/03/03 03:35:59;;;;;;;6.95;2.55;;;;;;;0.93;86.43;147558.66;5147016;27;20034;-65
2023/03/03 03:38:26;;;;;;;7.70;2.42;;;;;;;0.71;88.15;147503.91;5154942;27;20034;-65
2023/03/03 03:40:52;;;;;;;6.47;2.72;;;;;;;0.68;89.28;147497.59;5146727;27;20096;-64
2023/03/03 03:43:18;;;;;;;5.13;2.30;;;;;;;0.68;89.74;147496.28;5144509;27;20023;-65
2023/03/03 03:45:44;;;;;;;5.13;2.30;;;;;;;0.73;89.79;147509.03;5150900;27;20242;-64
2023/03/03 03:48:10;;;;;;;3.72;2.60;;;;;;;0.75;90.03;147514.09;5145837;27;20027;-65
2023/03/03 03:50:37;;;;;;;4.72;2.53;;;;;;;0.68;90.21;147496.28;5148430;27;20340;-64
2023/03/03 03:53:03;;;;;;;6.18;2.20;;;;;;;0.70;90.35;147501.41;5139161;27;20065;-64
2023/03/03 03:55:29;;;;;;;7.68;3.08;;;;;;;0.78;90.13;147521.72;5149874;27;20058;-64
2023/03/03 03:57:56;;;;;;;4.72;2.47;;;;;;;0.85;89.95;147539.53;5155419;27;20064;-65
2023/03/03 04:00:22;;;;;;;5.45;2.38;;;;;;;0.80;89.25;147526.84;5148538;27;20320;-67
2023/03/03 04:02:47;;;;;;;6.22;2.47;;;;;;;0.69;89.49;147500.09;5142162;27;20042;-64
2023/03/03 04:05:13;;;;;;;7.18;2.65;;;;;;;0.67;89.46;147493.75;5145879;27;20238;-63
2023/03/03 04:07:39;;;;;;;6.30;2.30;;;;;;;0.71;89.70;147502.66;5136449;27;20026;-64
2023/03/03 04:10:05;;;;;;;7.97;3.05;;;;;;;0.72;90.12;147506.47;5156086;27;20031;-64
2023/03/03 04:12:37;;;;;;;9.80;4.88;;;;;;;0.72;90.05;147505.22;5148044;27;20324;-64
2023/03/03 04:15:05;;;;;;;9.35;2.78;;;;;;;0.69;89.24;147500.09;5160910;27;20042;-65
2023/03/03 04:17:31;;;;;;;7.00;2.53;;;;;;;0.61;90.36;147479.75;5152070;27;20053;-63
2023/03/03 04:19:56;;;;;;;5.25;2.10;;;;;;;0.47;90.42;147444.13;5157629;27;20031;-64
2023/03/03 04:22:22;;;;;;;7.38;2.40;;;;;;;0.51;90.88;147454.31;5155524;27;20027;-65
2023/03/03 04:24:47;;;;;;;7.97;2.45;;;;;;;0.58;91.36;147470.88;5146011;27;20043;-63
2023/03/03 04:27:14;;;;;;;6.60;2.50;;;;;;;0.50;91.33;147451.81;5139741;27;20027;-65
2023/03/03 04:29:41;;;;;;;6.35;2.58;;;;;;;0.47;91.80;147445.44;5148988;27;20030;-65
2023/03/03 04:32:06;;;;;;;5.97;2.15;;;;;;;0.44;92.58;147436.50;5147138;27;20094;-64
2023/03/03 04:34:32;;;;;;;6.60;2.95;;;;;;;0.55;92.01;147463.25;5152803;27;20303;-64
2023/03/03 04:36:58;;;;;;;6.13;2.67;;;;;;;0.58;92.74;147470.88;5147996;27;20342;-63
2023/03/03 04:39:23;;;;;;;7.20;2.47;;;;;;;0.45;92.57;147440.31;5159233;27;20088;-63
2023/03/03 04:41:49;;;;;;;7.25;2.83;;;;;;;0.48;92.28;147446.69;5153373;27;20378;-62
2023/03/03 04:44:15;;;;;;;7.60;2.67;;;;;;;0.41;92.09;147428.88;5158130;27;20027;-63
2023/03/03 04:46:40;;;;;;;5.78;2.58;;;;;;;0.43;92.66;147435.25;5154993;27;20263;-63
2023/03/03 04:49:07;;;;;;;8.38;2.97;;;;;;;0.42;92.32;147432.69;5149172;27;20065;-63
2023/03/03 04:51:33;;;;;;;4.78;2.50;;;;;;;0.45;92.24;147439.06;5157930;27;20034;-64
2023/03/03 04:53:59;;;;;;;6.20;2.50;;;;;;;0.50;91.80;147451.81;5153496;27;20042;-64
2023/03/03 04:56:25;;;;;;;7.43;2.78;;;;;;;0.46;92.06;147442.88;5160251;27;20038;-65
2023/03/03 04:58:51;;;;;;;10.45;2.63;;;;;;;0.38;91.63;147422.53;5154304;27;20033;-64
2023/03/03 05:01:18;;;;;;;6.80;3.13;;;;;;;0.54;91.70;147461.94;5131942;27;20025;-65
2023/03/03 05:03:44;;;;;;;8.77;2.60;;;;;;;0.61;90.78;147478.50;5157042;27;20034;-64
2023/03/03 05:06:09;;;;;;;8.50;2.63;;;;;;;0.68;90.98;147496.28;5126285;27;20027;-64
2023/03/03 05:08:35;;;;;;;9.40;3.33;;;;;;;0.63;91.08;147483.59;5125896;27;20023;-65
2023/03/03 05:11:01;;;;;;;9.02;2.95;;;;;;;0.71;90.88;147502.66;5150365;27;20055;-65
2023/03/03 05:13:27;;;;;;;5.60;2.63;;;;;;;0.77;90.71;147519.22;5144907;27;20015;-64
2023/03/03 05:15:54;;;;;;;6.10;3.03;;;;;;;0.76;90.18;147516.66;5138480;27;20090;-64
2023/03/03 05:18:21;;;;;;;6.32;2.60;;;;;;;0.61;90.37;147478.50;5152144;27;20050;-63
2023/03/03 05:20:48;;;;;;;7.82;2.97;;;;;;;0.57;90.56;147469.63;5145169;27;20027;-64
2023/03/03 05:23:13;;;;;;;7.88;2.60;;;;;;;0.65;90.42;147488.69;5146031;27;20046;-63
2023/03/03 05:25:42;;;;;;;5.78;2.80;;;;;;;0.66;90.87;147491.22;5144757;27;20027;-64
2023/03/03 05:28:09;;;;;;;6.78;2.60;;;;;;;0.67;90.38;147493.75;5148255;27;20471;-65
2023/03/03 05:30:35;;;;;;;6.43;2.45;;;;;;;0.61;90.11;147479.75;5150490;27;20019;-63
2023/03/03 05:33:01;;;;;;;7.88;2.80;;;;;;;0.45;90.36;147439.06;5143438;27;20418;-64
2023/03/03 05:35:27;;;;;;;8.23;2.72;;;;;;;0.52;90.42;147456.88;5149490;27;20099;-64
2023/03/03 05:37:53;;;;;;;9.52;2.85;;;;;;;0.52;90.52;147458.13;5135468;27;20027;-63
2023/03/03 05:40:19;;;;;;;10.05;3.20;;;;;;;0.56;90.80;147467.06;5149009;27;20027;-63
2023/03/03 05:42:45;;;;;;;12.27;3.60;;;;;;;0.64;90.20;147487.41;5149928;27;20246;-64
2023/03/03 05:45:11;;;;;;;8.93;3.22;;;;;;;0.60;90.28;147477.25;5145341;27;20086;-64
2023/03/03 05:47:37;;;;;;;13.25;2.92;;;;;;;0.78;90.02;147520.47;5154030;27;20068;-63
2023/03/03 05:50:04;;;;;;;8.98;3.03;;;;;;;0.67;89.30;147495.03;5145909;27;20027;-65
2023/03/03 05:52:29;;;;;;;6.03;2.63;;;;;;;0.69;89.46;147500.09;5132111;27;20014;-63
2023/03/03 05:54:55;;;;;;;11.48;2.78;;;;;;;0.65;88.73;147489.94;5149239;27;20368;-62
2023/03/03 05:57:20;;;;;;;7.63;2.78;;;;;;;0.64;88.66;147487.41;5144365;27;20039;-65
2023/03/03 05:59:46;;;;;;;10.18;3.83;;;;;;;0.59;89.11;147474.69;5149411;27;20036;-64
2023/03/03 06:02:12;;;;;;;10.05;3.17;;;;;;;0.59;89.39;147473.44;5131010;27;20026;-63
2023/03/03 06:04:38;;;;;;;7.75;2.72;;;;;;;0.61;89.00;147478.50;5136457;27;20054;-64
2023/03/03 06:07:05;;;;;;;7.57;2.78;;;;;;;0.63;88.58;147484.88;5145865;27;20053;-63
2023/03/03 06:09:31;;;;;;;10.18;3.17;;;;;;;0.61;88.12;147479.75;5139908;27;20464;-63
2023/03/03 06:11:57;;;;;;;10.07;2.92;;;;;;;0.66;87.81;147492.50;5139955;27;20087;-62
2023/03/03 06:14:23;;;;;;;8.50;2.55;;;;;;;0.74;87.96;147511.59;5139745;27;20193;-63
2023/03/03 06:16:48;;;;;;;10.27;3.35;;;;;;;0.74;86.96;147511.59;5152802;27;20255;-63
2023/03/03 06:19:14;;;;;;;12.68;3.47;;;;;;;0.76;87.72;147515.41;5146374;27;20027;-63
2023/03/03 06:21:40;;;;;;;12.25;3.22;;;;;;;0.71;87.27;147502.66;5144227;27;20280;-63
2023/03/03 06:24:06;;;;;;;10.40;3.15;;;;;;;0.84;87.03;147535.72;5148890;27;20071;-63
2023/03/03 06:26:32;;;;;;;8.25;3.10;;;;;;;0.77;87.23;147519.22;5143991;27;20031;-63
2023/03/03 06:28:58;;;;;;;9.02;3.10;;;;;;;0.78;87.13;147520.47;5135554;27;20079;-63
2023/03/03 06:31:24;;;;;;;10.77;3.40;;;;;;;0.77;86.18;147519.22;5144808;27;20296;-63
2023/03/03 06:33:50;;;;;;;10.00;3.65;;;;;;;0.71;86.85;147503.91;5105184;27;20047;-64
2023/03/03 06:36:17;;;;;;;10.43;3.15;;;;;;;0.88;86.42;147544.66;5137234;27;20030;-64
2023/03/03 06:38:43;;;;;;;11.55;3.20;;;;;;;0.91;86.84;147552.28;5143301;27;20047;-63
2023/03/03 06:41:09;;;;;;;9.50;3.47;;;;;;;0.76;86.19;147516.66;5154950;27;20049;-64
2023/03/03 06:43:35;;;;;;;8.40;3.33;;;;;;;0.80;85.51;147526.84;5148850;27;20030;-64
2023/03/03 06:46:01;;;;;;;9.43;3.00;;;;;;;0.82;86.26;147531.91;5143073;27;20022;-64
2023/03/03 06:48:28;;;;;;;12.32;3.35;;;;;;;0.97;86.32;147567.53;5142008;27;20042;-63
2023/03/03 06:50:54;;;;;;;7.88;3.20;;;;;;;0.78;85.85;147521.72;5141733;27;20031;-63
2023/03/03 06:53:19;;;;;;;11.30;3.45;;;;;;;0.96;85.52;147565.03;5122625;27;20071;-64
2023/03/03 06:55:45;;;;;;;8.90;3.20;;;;;;;0.82;85.90;147530.66;5106045;27;20559;-63
2023/03/03 06:58:15;;;;;;;11.65;3.67;;;;;;;0.90;85.28;147549.72;5141537;27;20294;-64
2023/03/03 07:00:52;;;;;;;11.60;3.05;;;;;;;1.03;84.73;147582.84;5141813;27;20080;-64
2023/03/03 07:03:22;;;;;;;8.48;3.28;;;;;;;1.16;84.10;147615.91;5141027;27;20605;-64
2023/03/03 07:05:48;;;;;;;10.48;3.30;;;;;;;1.26;84.09;147638.84;5142673;27;20072;-64
2023/03/03 07:08:16;;;;;;;10.38;3.35;;;;;;;1.15;83.72;147613.34;5139164;27;20451;-63
2023/03/03 07:10:43;;;;;;;7.15;2.85;;;;;;;1.22;83.09;147628.66;5142395;27;20043;-63
2023/03/03 07:13:28;;;;;;;11.40;3.53;;;;;;;1.23;83.04;147631.16;5142391;27;20031;-63
2023/03/03 07:16:00;;;;;;;9.35;2.80;;;;;;;1.23;83.36;147631.16;5123904;27;20046;-63
2023/03/03 07:18:45;;;;;;;8.07;3.17;;;;;;;1.12;83.15;147605.72;5141692;27;20030;-64
2023/03/03 07:21:17;;;;;;;14.25;3.58;;;;;;;1.03;82.63;147582.84;5142852;27;20042;-63
2023/03/03 07:23:44;;;;;;;6.32;2.95;;;;;;;1.02;83.13;147580.28;5157370;27;20042;-63
2023/03/03 07:26:29;;;;;;;10.07;3.30;;;;;;;1.01;83.19;147577.72;5142711;27;20036;-64
2023/03/03 07:29:00;;;;;;;9.27;3.28;;;;;;;0.92;83.34;147554.84;5151727;27;20031;-64
2023/03/03 07:31:38;;;;;;;8.48;3.35;;;;;;;0.95;82.91;147563.72;5147213;27;20023;-62
2023/03/03 07:34:15;;;;;;;10.13;3.60;;;;;;;0.96;83.42;147565.03;5144038;27;20331;-63
2023/03/03 07:36:42;;;;;;;8.50;3.03;;;;;;;0.88;83.06;147544.66;5154924;27;20038;-64
2023/03/03 07:39:37;;;;;;;13.07;3.58;;;;;;;1.06;83.40;147590.47;5131257;28;20023;-63
2023/03/03 07:42:22;;;;;;;12.45;3.70;;;;;;;1.15;83.28;147613.34;5152174;27;20051;-63
2023/03/03 07:44:54;;;;;;;12.15;3.42;;;;;;;1.08;82.29;147594.28;5135956;27;20080;-63
2023/03/03 07:47:34;;;;;;;8.82;3.05;;;;;;;1.06;82.25;147590.47;5134466;27;20098;-63
2023/03/03 07:50:15;;;;;;;10.00;3.00;;;;;;;1.16;82.33;147614.66;5139399;28;20084;-63
2023/03/03 07:52:55;;;;;;;8.98;3.30;;;;;;;1.08;83.17;147595.53;5128622;27;20031;-63
2023/03/03 07:55:30;;;;;;;8.63;3.33;;;;;;;1.14;83.60;147609.53;5144915;27;20076;-63
2023/03/03 07:58:14;;;;;;;11.13;3.45;;;;;;;1.14;82.69;147610.84;5149242;27;20034;-63
2023/03/03 08:01:17;;;;;;;7.65;3.25;;;;;;;1.33;82.33;147657.91;5142008;27;20308;-63
2023/03/03 08:03:48;;;;;;;8.15;3.40;;;;;;;1.48;81.59;147694.84;5138098;27;20038;-63
2023/03/03 08:06:35;;;;;;;10.80;3.33;;;;;;;1.51;81.35;147702.47;5143235;27;20050;-63
2023/03/03 08:09:18;;;;;;;14.23;3.88;;;;;;;1.42;80.89;147679.53;5141042;28;20034;-64
2023/03/03 08:11:51;;;;;;;8.48;2.90;;;;;;;1.37;81.06;147668.09;5142525;28;20038;-63
2023/03/03 08:14:28;;;;;;;10.95;3.67;;;;;;;1.52;81.45;147704.97;5128137;28;20054;-64
2023/03/03 08:16:55;;;;;;;12.68;3.28;;;;;;;1.71;80.65;147752.13;5125812;27;20033;-63
2023/03/03 08:19:22;;;;;;;9.15;3.10;;;;;;;1.40;80.18;147673.16;5154034;27;20035;-64
2023/03/03 08:21:47;;;;;;;11.93;3.60;;;;;;;1.63;79.91;147730.47;5147316;27;20046;-63
2023/03/03 08:24:13;;;;;;;7.80;3.08;;;;;;;1.78;80.03;147767.38;5141899;27;20035;-64
2023/03/03 08:26:38;;;;;;;8.27;2.95;;;;;;;1.61;79.50;147725.38;5149906;27;20070;-64
2023/03/03 08:29:04;;;;;;;8.90;3.42;;;;;;;1.52;80.19;147703.72;5126305;27;20046;-63
2023/03/03 08:31:30;;;;;;;12.90;2.50;;;;;;;1.58;79.02;147719.00;5149654;27;20212;-63
2023/03/03 08:33:55;;;;;;;13.23;3.08;;;;;;;1.57;79.17;147716.47;5125746;28;20234;-62
2023/03/03 08:36:21;;;;;;;9.68;3.17;;;;;;;1.67;79.40;147740.69;5104822;28;20019;-63
2023/03/03 08:38:46;;;;;;;11.07;3.78;;;;;;;1.65;79.73;147736.81;5145164;27;20027;-63
2023/03/03 08:41:12;;;;;;;12.40;3.92;;;;;;;1.66;79.43;147739.38;5123554;27;20030;-63
2023/03/03 08:43:38;;;;;;;11.27;3.03;;;;;;;1.68;78.97;147743.19;5135178;27;20026;-63
2023/03/03 08:46:05;;;;;;;7.63;2.38;;;;;;;1.40;78.96;147673.16;5134525;27;20024;-65
2023/03/03 08:48:32;;;;;;;7.70;2.55;;;;;;;1.50;78.64;147698.66;5143769;27;20065;-63
2023/03/03 08:50:58;;;;;;;9.07;3.20;;;;;;;1.61;79.80;147725.38;5148012;27;20043;-65
2023/03/03 08:53:24;;;;;;;5.72;2.22;;;;;;;1.57;79.36;147715.19;5145356;27;20294;-64
2023/03/03 08:55:50;;;;;;;8.10;3.03;;;;;;;1.48;79.47;147694.84;5153803;27;20037;-63
2023/03/03 08:58:18;;;;;;;4.65;2.40;;;;;;;1.59;80.41;147720.28;5130987;27;20011;-63
2023/03/03 09:00:44;;;;;;;5.82;3.10;;;;;;;1.67;79.96;147740.69;5158544;27;20038;-63
2023/03/03 09:03:09;;;;;;;12.02;3.20;;;;;;;1.81;79.54;147776.31;5152558;27;20019;-64
2023/03/03 09:05:38;;;;;;;9.10;3.08;;;;;;;1.83;79.40;147780.13;5145349;27;20063;-65
2023/03/03 09:08:04;;;;;;;8.70;3.17;;;;;;;1.61;79.59;147726.66;5152628;27;20269;-63
2023/03/03 09:10:31;;;;;;;6.55;2.47;;;;;;;1.68;79.30;147744.50;5147587;27;20110;-64
2023/03/03 09:13:00;;;;;;;8.18;2.97;;;;;;;1.70;78.80;147748.31;5141710;27;20035;-64
2023/03/03 09:15:34;;;;;;;11.48;3.35;;;;;;;1.92;78.62;147801.78;5142505;27;20023;-64
2023/03/03 09:18:14;;;;;;;10.18;3.42;;;;;;;1.89;79.09;147795.41;5144446;27;20047;-64
2023/03/03 09:20:43;;;;;;;8.80;2.97;;;;;;;1.73;78.37;147755.94;5153812;27;20019;-63
2023/03/03 09:23:35;;;;;;;8.25;2.58;;;;;;;1.61;78.25;147725.38;5143710;27;20095;-63
2023/03/03 09:26:15;;;;;;;5.90;2.30;;;;;;;1.55;78.79;147712.66;5144638;27;20079;-64
2023/03/03 09:28:41;;;;;;;7.45;2.67;;;;;;;1.72;78.36;147754.69;5124556;27;20027;-64
2023/03/03 09:31:25;;;;;;;10.57;4.80;;;;;;;1.80;78.64;147772.50;5133282;27;20340;-63
2023/03/03 09:33:54;;;;;;;7.28;2.67;;;;;;;1.98;78.29;147817.03;5134351;27;20030;-64
2023/03/03 09:36:22;;;;;;;6.25;2.58;;;;;;;2.23;77.16;147879.47;5125882;27;20036;-64
2023/03/03 09:38:48;;;;;;;8.48;2.63;;;;;;;2.32;77.01;147901.13;5153428;27;20090;-64
2023/03/03 09:41:34;;;;;;;7.88;2.88;;;;;;;2.19;77.42;147870.53;5126889;27;20023;-64
2023/03/03 09:44:06;;;;;;;8.32;2.90;;;;;;;2.21;78.33;147874.41;5145718;27;20042;-64
2023/03/03 09:46:43;;;;;;;8.40;2.92;;;;;;;2.19;78.07;147870.53;5145421;27;20022;-64
2023/03/03 09:49:32;;;;;;;11.77;3.05;;;;;;;2.12;79.87;147851.44;5145471;27;20424;-64
2023/03/03 09:52:39;;;;;;;5.70;2.85;;;;;;;2.28;80.79;147892.22;5149684;27;20050;-63
2023/03/03 09:55:42;;;;;;;6.47;3.00;;;;;;;2.28;80.72;147892.22;5113888;27;20037;-65
2023/03/03 09:58:22;;;;;;;11.35;3.45;;;;;;;2.25;80.93;147884.53;5149696;27;20038;-65
2023/03/03 10:01:35;;;;;;;8.00;3.28;;;;;;;2.27;81.23;147889.66;5127842;27;20082;-68
2023/03/03 10:04:04;;;;;;;6.90;2.95;;;;;;;2.16;80.56;147862.91;5078772;28;20047;-63
2023/03/03 10:07:13;;;;;;;8.77;3.03;;;;;;;2.16;81.09;147862.91;5100603;28;20039;-67
2023/03/03 10:10:18;;;;;;;10.40;3.00;;;;;;;2.30;80.06;147896.03;5040451;28;20037;-63
2023/03/03 10:13:25;;;;;;;5.60;2.90;;;;;;;2.38;80.10;147917.69;5093586;28;20280;-64
2023/03/03 10:16:12;;;;;;;9.07;2.90;;;;;;;2.40;79.77;147922.78;5101040;28;20067;-63
2023/03/03 10:19:00;;;;;;;6.05;2.58;;;;;;;2.19;79.93;147870.53;5100362;28;20150;-63
2023/03/03 10:21:36;;;;;;;8.93;3.13;;;;;;;2.45;79.71;147934.22;5088823;28;20032;-63
2023/03/03 10:24:26;;;;;;;4.55;2.67;;;;;;;2.41;79.92;147925.31;5100263;28;20052;-63
2023/03/03 10:27:04;;;;;;;9.38;3.30;;;;;;;2.56;79.54;147962.25;5100025;28;20063;-64
2023/03/03 10:29:41;;;;;;;4.93;2.55;;;;;;;2.32;79.59;147901.13;5100595;28;20346;-63
2023/03/03 10:32:12;;;;;;;6.88;2.50;;;;;;;2.48;79.76;147941.91;5090440;28;20047;-64
2023/03/03 10:34:43;;;;;;;6.95;3.17;;;;;;;2.37;79.98;147913.88;5106129;27;20175;-64
2023/03/03 10:37:39;;;;;;;6.72;3.10;;;;;;;2.29;79.29;147893.47;5144994;27;20031;-64
2023/03/03 10:40:27;;;;;;;8.60;2.75;;;;;;;2.18;79.43;147868.00;5150879;27;20054;-64
2023/03/03 10:43:20;;;;;;;8.32;2.70;;;;;;;2.01;78.94;147825.97;5143610;27;20019;-64
2023/03/03 10:46:09;;;;;;;6.70;2.53;;;;;;;2.04;79.50;147832.34;5133490;27;20361;-63
2023/03/03 10:49:01;;;;;;;5.10;2.40;;;;;;;2.30;78.52;147896.03;5121541;27;20106;-64
2023/03/03 10:51:39;;;;;;;5.30;2.17;;;;;;;2.17;77.49;147865.47;5153225;27;20033;-64
2023/03/03 10:54:16;;;;;;;6.13;2.42;;;;;;;2.33;76.98;147904.94;5147696;27;20027;-63
2023/03/03 10:56:49;;;;;;;6.28;2.38;;;;;;;2.40;77.74;147921.50;5156216;27;20226;-64
2023/03/03 10:59:51;;;;;;;3.78;2.33;;;;;;;2.34;76.95;147906.25;5147636;27;20478;-63
2023/03/03 11:03:01;;;;;;;5.25;2.60;;;;;;;2.28;77.44;147892.22;5153192;27;20097;-64
2023/03/03 11:05:33;;;;;;;7.57;2.72;;;;;;;2.46;76.41;147936.78;5133844;27;20030;-64
2023/03/03 11:08:14;;;;;;;10.23;2.80;;;;;;;2.42;76.42;147926.59;5150680;27;20034;-64
2023/03/03 11:11:07;;;;;;;6.10;2.70;;;;;;;2.57;76.06;147963.56;5148714;27;20378;-64
2023/03/03 11:13:51;;;;;;;7.50;2.20;;;;;;;2.55;75.93;147958.44;5133317;27;20031;-64
2023/03/03 11:16:46;;;;;;;7.28;2.60;;;;;;;2.54;74.93;147955.91;5132931;27;20236;-63
2023/03/03 11:19:22;;;;;;;5.70;2.40;;;;;;;2.47;75.29;147939.34;5115179;27;20042;-63
2023/03/03 11:22:32;;;;;;;7.72;2.50;;;;;;;2.64;75.82;147980.13;5150502;27;20031;-64
2023/03/03 11:25:21;;;;;;;5.72;1.85;;;;;;;2.70;74.45;147996.66;5106026;27;20083;-64
2023/03/03 11:27:57;;;;;;;6.28;2.40;;;;;;;2.51;74.14;147949.53;5124542;27;20043;-64
2023/03/03 11:30:38;;;;;;;6.20;2.35;;;;;;;2.63;75.04;147978.84;5142111;27;20235;-63
2023/03/03 11:33:19;;;;;;;2.78;1.80;;;;;;;2.46;74.74;147936.78;5156972;27;20031;-63
2023/03/03 11:35:50;;;;;;;5.22;2.00;;;;;;;2.48;74.04;147941.91;5142749;27;20030;-64
2023/03/03 11:38:50;;;;;;;3.28;2.20;;;;;;;2.57;74.83;147963.56;5152354;27;20030;-64
2023/03/03 11:41:50;;;;;;;4.88;1.90;;;;;;;2.48;73.61;147940.59;5148320;27;20051;-64
2023/03/03 11:44:39;;;;;;;6.43;2.22;;;;;;;2.49;74.62;147944.41;5151852;27;20029;-63
2023/03/03 11:47:10;;;;;;;3.95;1.98;;;;;;;2.47;73.89;147939.34;5151043;27;20041;-64
2023/03/03 11:49:42;;;;;;;3.70;1.75;;;;;;;2.54;74.28;147957.19;5142270;28;20094;-63
2023/03/03 11:52:14;;;;;;;5.38;2.58;;;;;;;2.52;73.79;147952.09;5141990;28;20053;-65
2023/03/03 11:55:00;;;;;;;6.45;2.10;;;;;;;2.59;74.24;147968.63;5135584;28;20164;-64
2023/03/03 11:58:05;;;;;;;6.00;2.40;;;;;;;2.56;75.26;147962.25;5156542;27;20050;-64
2023/03/03 12:00:46;;;;;;;3.97;2.13;;;;;;;2.39;76.54;147920.25;5051454;28;20057;-64
2023/03/03 12:03:30;;;;;;;6.63;2.57;;;;;;;2.36;77.66;147911.31;5147689;27;20103;-64
2023/03/03 12:06:28;;;;;;;5.57;2.95;;;;;;;2.48;76.61;147940.59;5136104;28;20832;-64
2023/03/03 12:09:14;;;;;;;4.95;2.53;;;;;;;2.58;77.46;147966.13;5099787;27;20036;-64
2023/03/03 12:11:57;;;;;;;6.03;2.70;;;;;;;2.36;77.01;147911.31;5133064;28;20029;-64
2023/03/03 12:14:41;;;;;;;14.32;3.22;;;;;;;2.55;77.75;147958.44;5141486;28;20141;-63
2023/03/03 12:17:29;;;;;;;7.70;2.85;;;;;;;2.54;77.63;147957.19;5150966;27;20042;-64
2023/03/03 12:20:16;;;;;;;6.97;2.90;;;;;;;2.81;78.30;148023.44;5131677;27;20059;-64
2023/03/03 12:23:06;;;;;;;7.18;3.13;;;;;;;2.80;77.24;148020.88;5142071;27;20153;-64